Time;durP1;ratioP1;P1;durP2;ratioP2;P2;SDS_P1;SDS_P2;PMS_P1;PMS_P2;Temp;Humidity;BMP_temperature;BMP_pressure;BME280_temperature;BME280_humidity;BME280_pressure;Samples;Min_cycle;Max_cycle;Signal;HPM_P1;HPM_P2
2021/06/19 00:00:51;;;;;;;10.30;7.00;;;;;;;18.71;62.08;99803.04;1760432;81;21279;-65
2021/06/19 00:03:19;;;;;;;13.60;7.10;;;;;;;18.69;62.09;99797.02;1762521;80;20901;-65
2021/06/19 00:05:46;;;;;;;;;;;;;;;18.68;62.19;99805.06;1761922;80;21098;-65
2021/06/19 00:08:13;;;;;;;9.78;5.90;;;;;;;18.66;62.37;99809.66;1760686;80;20527;-65
2021/06/19 00:10:40;;;;;;;8.28;6.30;;;;;;;18.62;62.35;99807.72;1763483;80;21408;-65
2021/06/19 00:13:08;;;;;;;9.28;5.95;;;;;;;18.62;62.33;99810.84;1761330;80;21352;-65
2021/06/19 00:15:35;;;;;;;10.05;6.35;;;;;;;18.64;62.36;99811.58;1758678;80;20913;-65
2021/06/19 00:18:03;;;;;;;12.98;5.62;;;;;;;18.64;62.36;99808.93;1762663;80;22964;-65
2021/06/19 00:20:29;;;;;;;;;;;;;;;18.65;62.48;99802.67;1762167;80;20919;-65
2021/06/19 00:22:56;;;;;;;11.55;5.87;;;;;;;18.66;62.62;99799.08;1759548;80;20112;-65
2021/06/19 00:25:26;;;;;;;10.45;6.20;;;;;;;18.65;62.49;99795.59;1757056;80;21455;-65
2021/06/19 00:27:53;;;;;;;9.03;6.30;;;;;;;18.65;62.51;99792.09;1760387;80;20862;-65
2021/06/19 00:30:21;;;;;;;12.47;6.60;;;;;;;18.65;62.55;99802.67;1734385;81;21056;-65
2021/06/19 00:32:49;;;;;;;11.10;6.72;;;;;;;18.65;62.62;99797.38;1734660;81;21518;-65
2021/06/19 00:35:16;;;;;;;9.53;6.65;;;;;;;18.63;62.61;99801.97;1757269;80;20977;-65
2021/06/19 00:37:43;;;;;;;9.33;6.50;;;;;;;18.58;62.66;99801.48;1763166;80;20881;-65
2021/06/19 00:40:12;;;;;;;9.68;6.47;;;;;;;18.52;62.71;99798.85;1761622;80;20893;-65
2021/06/19 00:42:39;;;;;;;9.53;6.62;;;;;;;18.48;62.79;99794.27;1764651;80;21018;-65
2021/06/19 00:45:07;;;;;;;12.43;6.47;;;;;;;18.46;62.92;99793.56;1759299;80;20941;-65
2021/06/19 00:47:39;;;;;;;15.05;6.47;;;;;;;18.45;62.93;99783.94;1761249;80;20928;-65
2021/06/19 00:50:07;;;;;;;9.63;6.70;;;;;;;18.45;62.99;99787.90;1764167;80;20873;-65
2021/06/19 00:52:34;;;;;;;8.55;6.22;;;;;;;18.43;63.02;99785.88;1755678;80;21339;-65
2021/06/19 00:55:00;;;;;;;11.43;6.62;;;;;;;18.43;63.09;99783.23;1760139;80;21139;-65
2021/06/19 00:57:27;;;;;;;11.15;6.85;;;;;;;18.45;63.14;99786.58;1758881;80;20928;-65
2021/06/19 00:59:58;;;;;;;7.08;6.12;;;;;;;18.45;63.14;99776.00;1759903;80;20913;-65
2021/06/19 01:02:25;;;;;;;15.83;6.72;;;;;;;18.47;63.18;99786.47;1756247;80;20941;-65
2021/06/19 01:04:52;;;;;;;9.98;6.50;;;;;;;18.48;63.28;99779.72;1762872;79;20933;-65
2021/06/19 01:07:18;;;;;;;16.10;6.30;;;;;;;18.47;63.29;99782.02;1775002;78;21085;-65
2021/06/19 01:09:45;;;;;;;7.27;6.43;;;;;;;18.43;63.13;99785.88;1771334;79;20964;-65
2021/06/19 01:12:12;;;;;;;9.03;6.30;;;;;;;18.43;63.13;99785.88;1766543;79;21414;-65
2021/06/19 01:14:39;;;;;;;7.80;6.12;;;;;;;18.40;63.38;99780.84;1766498;79;20928;-65
2021/06/19 01:17:05;;;;;;;6.60;5.90;;;;;;;18.42;63.50;99790.79;1764916;79;20918;-65
2021/06/19 01:19:32;;;;;;;12.40;5.47;;;;;;;18.42;63.47;99784.18;1781218;79;21057;-65
2021/06/19 01:21:58;;;;;;;9.45;5.92;;;;;;;18.43;63.56;99788.52;1772159;79;20904;-65
2021/06/19 01:24:25;;;;;;;10.48;5.83;;;;;;;18.42;63.61;99791.27;1776911;79;20858;-64
2021/06/19 01:26:52;;;;;;;14.30;6.83;;;;;;;18.41;63.59;99787.80;1770662;79;20868;-65
2021/06/19 01:29:20;;;;;;;10.13;6.15;;;;;;;18.40;63.66;99782.61;1775374;79;20865;-64
2021/06/19 01:31:47;;;;;;;7.50;6.50;;;;;;;18.42;63.70;99788.14;1767508;79;21097;-65
2021/06/19 01:34:24;;;;;;;8.70;6.15;;;;;;;18.43;63.75;99784.56;1775025;79;20917;-65
2021/06/19 01:36:51;;;;;;;8.43;5.92;;;;;;;18.42;63.75;99781.53;1773779;79;21443;-65
2021/06/19 01:39:18;;;;;;;8.83;5.60;;;;;;;18.41;63.90;99781.19;1769071;79;21471;-65
2021/06/19 01:41:44;;;;;;;10.43;5.75;;;;;;;18.40;63.84;99778.20;1770652;79;21457;-65
2021/06/19 01:44:13;;;;;;;6.72;5.85;;;;;;;18.39;63.92;99771.20;1767137;79;49588;-65
2021/06/19 01:46:42;;;;;;;13.28;6.17;;;;;;;18.37;64.00;99773.13;1771135;79;20919;-64
2021/06/19 01:49:09;;;;;;;8.45;5.70;;;;;;;18.35;63.96;99777.71;1772452;79;20947;-65
2021/06/19 01:51:36;;;;;;;6.60;5.90;;;;;;;18.34;64.03;99782.16;1770953;79;26411;-65
2021/06/19 01:54:06;;;;;;;10.80;5.90;;;;;;;18.35;64.09;99780.36;1779317;79;20927;-64
2021/06/19 01:56:33;;;;;;;8.13;6.25;;;;;;;18.34;64.10;99787.45;1777012;78;21100;-65
2021/06/19 01:58:59;;;;;;;7.95;5.70;;;;;;;18.32;64.18;99785.88;1772656;79;20935;-65
2021/06/19 02:01:26;;;;;;;26.87;6.40;;;;;;;18.30;64.24;99789.95;1779281;79;20920;-65
2021/06/19 02:03:52;;;;;;;7.07;5.93;;;;;;;18.29;64.28;99783.48;1776897;79;20872;-65
2021/06/19 02:06:19;;;;;;;16.53;6.17;;;;;;;18.27;64.42;99781.44;1763103;79;21155;-65
2021/06/19 02:09:08;;;;;;;13.62;6.22;;;;;;;18.25;64.44;99782.02;1768217;80;21288;-65
2021/06/19 02:11:36;;;;;;;7.05;6.03;;;;;;;18.24;64.50;99783.00;1770211;80;21633;-65
2021/06/19 02:14:05;;;;;;;7.75;5.58;;;;;;;18.22;64.58;99775.66;1762150;80;20988;-64
2021/06/19 02:16:31;;;;;;;6.87;5.78;;;;;;;18.23;64.66;99773.37;1767203;80;20900;-64
2021/06/19 02:18:58;;;;;;;12.50;5.78;;;;;;;18.21;64.73;99770.86;1772468;80;20869;-65
2021/06/19 02:21:24;;;;;;;8.10;6.30;;;;;;;18.22;64.74;99769.05;1765191;80;21885;-65
2021/06/19 02:23:52;;;;;;;8.33;5.93;;;;;;;18.22;64.80;99764.61;1767659;80;21592;-65
2021/06/19 02:26:18;;;;;;;;;;;;;;;18.25;64.85;99766.17;1769427;80;21431;-65
2021/06/19 02:28:45;;;;;;;7.07;5.90;;;;;;;18.26;65.11;99763.42;1766378;80;20151;-65
2021/06/19 02:31:11;;;;;;;9.60;5.73;;;;;;;18.28;65.17;99764.61;1766747;80;21407;-65
2021/06/19 02:33:38;;;;;;;9.13;5.85;;;;;;;18.30;65.05;99766.66;1768977;80;21063;-65
2021/06/19 02:36:07;;;;;;;8.83;6.37;;;;;;;18.34;65.03;99774.69;1768978;80;20917;-65
2021/06/19 02:38:36;;;;;;;14.47;5.72;;;;;;;18.40;65.07;99771.59;1770509;80;21483;-65
2021/06/19 02:41:03;;;;;;;6.58;5.85;;;;;;;18.45;65.07;99777.33;1764704;79;20849;-65
2021/06/19 02:43:29;;;;;;;8.15;5.80;;;;;;;18.62;65.30;99769.86;1763582;80;20895;-64
2021/06/19 02:45:59;;;;;;;6.97;5.83;;;;;;;19.08;65.35;99762.22;1779904;80;21099;-65
2021/06/19 02:48:27;;;;;;;10.05;5.50;;;;;;;19.60;65.21;99765.80;1762828;80;20902;-65
2021/06/19 02:50:54;;;;;;;8.63;6.00;;;;;;;20.13;64.95;99760.42;1767694;79;21547;-65
2021/06/19 02:53:21;;;;;;;;;;;;;;;20.66;64.73;99757.56;1769273;80;20885;-65
2021/06/19 02:55:47;;;;;;;7.10;5.80;;;;;;;21.19;64.25;99749.24;1766289;80;20118;-65
2021/06/19 02:58:15;;;;;;;44.03;7.80;;;;;;;21.73;64.10;99756.77;1768745;80;21100;-65
2021/06/19 03:00:42;;;;;;;13.30;5.60;;;;;;;22.28;63.67;99763.55;1770155;80;20976;-65
2021/06/19 03:03:09;;;;;;;8.23;5.75;;;;;;;22.85;63.49;99760.22;1763125;80;20933;-65
2021/06/19 03:05:37;;;;;;;24.67;6.30;;;;;;;23.37;62.92;99762.25;1773894;79;20935;-65
2021/06/19 03:08:05;;;;;;;9.08;5.15;;;;;;;23.89;62.41;99760.50;1765524;79;20905;-65
2021/06/19 03:10:39;;;;;;;9.08;5.78;;;;;;;24.33;62.08;99756.37;1773898;79;21061;-65
2021/06/19 03:13:06;;;;;;;7.60;5.45;;;;;;;24.83;61.49;99755.23;1774214;79;20897;-65
2021/06/19 03:15:33;;;;;;;7.15;5.10;;;;;;;25.29;61.09;99748.97;1775810;79;20856;-65
2021/06/19 03:18:00;;;;;;;8.05;5.05;;;;;;;25.74;60.59;99754.28;1776478;79;20906;-66
2021/06/19 03:20:26;;;;;;;;;;;;;;;26.14;60.07;99744.55;1770336;79;20905;-65
2021/06/19 03:22:57;;;;;;;9.58;5.40;;;;;;;26.59;59.41;99753.24;1776343;79;20962;-66
2021/06/19 03:25:31;;;;;;;11.50;5.10;;;;;;;26.96;59.09;99744.98;1769560;79;20913;-66
2021/06/19 03:28:01;;;;;;;7.80;5.05;;;;;;;27.37;58.58;99742.03;1752527;79;20931;-66
2021/06/19 03:30:29;;;;;;;8.73;4.80;;;;;;;27.73;57.81;99743.55;1767810;79;20940;-66
2021/06/19 03:32:56;;;;;;;8.68;4.97;;;;;;;28.07;57.24;99743.55;1771373;79;20955;-66
2021/06/19 03:35:23;;;;;;;6.85;4.95;;;;;;;28.33;56.71;99743.05;1778311;79;21146;-66
2021/06/19 03:37:51;;;;;;;6.58;4.50;;;;;;;28.59;56.09;99734.52;1776193;79;20947;-66
2021/06/19 03:40:19;;;;;;;8.60;5.00;;;;;;;28.84;55.56;99735.00;1764869;79;20964;-66
2021/06/19 03:42:47;;;;;;;13.93;5.08;;;;;;;29.11;54.77;99736.13;1778885;79;20896;-66
2021/06/19 03:45:14;;;;;;;11.68;4.62;;;;;;;29.23;54.27;99737.27;1761081;80;21536;-66
2021/06/19 03:47:42;;;;;;;9.68;4.75;;;;;;;29.48;53.36;99733.34;1773568;80;21061;-66
2021/06/19 03:50:13;;;;;;;9.48;4.90;;;;;;;29.59;53.38;99733.63;1746796;80;20962;-66
2021/06/19 03:52:40;;;;;;;10.25;5.28;;;;;;;29.93;52.85;99734.72;1756944;80;20917;-66
2021/06/19 03:55:08;;;;;;;8.55;4.25;;;;;;;30.24;52.15;99734.81;1756104;79;20909;-66
2021/06/19 03:57:36;;;;;;;8.35;4.53;;;;;;;30.44;51.69;99730.33;1758392;80;20892;-66
2021/06/19 04:00:08;;;;;;;7.42;4.42;;;;;;;30.67;51.36;99737.24;1758192;80;21833;-66
2021/06/19 04:02:35;;;;;;;9.53;4.87;;;;;;;30.97;50.77;99734.55;1743004;80;20972;-66
2021/06/19 04:05:01;;;;;;;7.65;4.20;;;;;;;31.24;49.98;99729.72;1783503;78;20888;-66
2021/06/19 04:07:28;;;;;;;11.38;4.75;;;;;;;31.41;49.65;99730.47;1773835;80;20901;-66
2021/06/19 04:09:55;;;;;;;5.65;4.20;;;;;;;31.64;49.19;99735.43;1772276;79;20909;-66
2021/06/19 04:12:22;;;;;;;9.68;4.30;;;;;;;31.85;48.49;99735.72;1771936;80;21044;-66
2021/06/19 04:14:50;;;;;;;8.55;3.85;;;;;;;32.09;48.22;99732.05;1771778;79;20964;-66
2021/06/19 04:17:18;;;;;;;7.12;3.98;;;;;;;32.21;47.41;99738.47;1772733;80;20932;-66
2021/06/19 04:19:45;;;;;;;7.55;4.05;;;;;;;32.37;47.06;99728.20;1769435;80;20940;-66
2021/06/19 04:22:13;;;;;;;5.95;3.85;;;;;;;32.38;46.34;99724.45;1772755;80;20925;-66
2021/06/19 04:24:41;;;;;;;10.60;4.47;;;;;;;32.58;46.07;99729.30;1775323;79;21038;-66
2021/06/19 04:27:18;;;;;;;7.03;3.85;;;;;;;32.80;45.57;99719.48;1774872;80;20932;-66
2021/06/19 04:29:45;;;;;;;5.03;4.25;;;;;;;32.93;45.15;99716.70;1778024;80;20932;-66
2021/06/19 04:32:13;;;;;;;11.33;4.62;;;;;;;33.18;44.71;99720.28;1775765;80;20870;-66
2021/06/19 04:34:41;;;;;;;7.85;4.22;;;;;;;33.31;44.24;99715.83;1772404;79;20885;-66
2021/06/19 04:37:09;;;;;;;11.97;4.08;;;;;;;33.45;43.77;99717.37;1771886;80;21102;-66
2021/06/19 04:39:40;;;;;;;12.65;4.60;;;;;;;33.69;43.42;99712.98;1777798;80;21428;-66
2021/06/19 04:42:07;;;;;;;13.43;4.25;;;;;;;33.85;43.07;99711.58;1771464;79;20913;-66
2021/06/19 04:45:01;;;;;;;6.97;3.67;;;;;;;34.08;42.64;99714.47;1772616;80;20897;-66
2021/06/19 04:47:10;;;;;;;4.92;3.95;;;;;;;34.13;41.89;99711.09;1764944;79;20905;-67
2021/06/19 04:49:37;;;;;;;8.13;3.70;;;;;;;34.32;41.74;99715.97;1775356;80;21262;-67
2021/06/19 04:52:04;;;;;;;9.30;4.15;;;;;;;34.49;41.16;99714.27;1773420;80;20961;-66
2021/06/19 04:54:37;;;;;;;6.00;3.30;;;;;;;34.59;40.98;99708.85;1775195;80;21441;-66
2021/06/19 04:57:01;;;;;;;8.15;4.33;;;;;;;34.82;40.69;99708.95;1772735;80;20892;-66
2021/06/19 04:59:28;;;;;;;10.38;3.92;;;;;;;34.97;40.20;99706.61;1774762;80;20914;-66
2021/06/19 05:01:54;;;;;;;8.23;3.25;;;;;;;35.00;39.66;99700.44;1771041;80;21085;-66
2021/06/19 05:04:21;;;;;;;68.17;6.65;;;;;;;35.13;39.52;99705.69;1771390;80;20870;-66
2021/06/19 05:06:48;;;;;;;27.85;5.78;;;;;;;35.28;39.35;99703.86;1767603;79;20869;-67
2021/06/19 05:09:14;;;;;;;8.58;3.98;;;;;;;35.60;39.12;99707.11;1771175;80;20885;-66
2021/06/19 05:11:41;;;;;;;5.65;3.52;;;;;;;35.88;38.77;99710.95;1772607;80;20865;-66
2021/06/19 05:14:07;;;;;;;5.10;3.70;;;;;;;35.99;38.05;99712.82;1769232;80;21868;-66
2021/06/19 05:16:34;;;;;;;10.00;3.90;;;;;;;35.99;37.75;99710.10;1771686;80;20924;-66
2021/06/19 05:19:01;;;;;;;10.18;3.47;;;;;;;35.99;37.34;99715.53;1771449;80;20932;-66
2021/06/19 05:21:27;;;;;;;9.45;3.80;;;;;;;35.98;37.08;99716.08;1772327;79;20929;-66
2021/06/19 05:23:54;;;;;;;6.85;3.45;;;;;;;36.00;36.61;99728.08;1769818;80;20952;-67
2021/06/19 05:26:21;;;;;;;13.78;3.75;;;;;;;36.02;36.53;99725.41;1766905;79;20986;-70
2021/06/19 05:28:47;;;;;;;6.28;3.42;;;;;;;36.19;36.47;99731.50;1772957;80;20881;-66
2021/06/19 05:31:14;;;;;;;10.65;3.55;;;;;;;36.38;36.06;99726.69;1766342;80;20904;-67
2021/06/19 05:33:42;;;;;;;9.45;3.70;;;;;;;36.36;35.65;99729.67;1770484;80;20948;-67
2021/06/19 05:36:08;;;;;;;8.05;3.80;;;;;;;36.29;35.55;99727.07;1773583;79;20862;-67
2021/06/19 05:38:35;;;;;;;8.78;3.60;;;;;;;36.38;35.27;99726.69;1770999;80;22277;-67
2021/06/19 05:41:02;;;;;;;13.20;4.00;;;;;;;36.37;35.02;99725.05;1752470;80;20878;-67
2021/06/19 05:43:28;;;;;;;57.23;7.97;;;;;;;36.35;34.94;99727.18;1776386;80;20900;-66
2021/06/19 05:45:55;;;;;;;8.80;3.77;;;;;;;36.42;35.07;99722.44;1775787;80;20917;-66
2021/06/19 05:48:23;;;;;;;8.40;3.40;;;;;;;36.59;34.55;99725.24;1772602;80;20953;-67
2021/06/19 05:50:50;;;;;;;13.93;4.03;;;;;;;36.53;34.24;99727.04;1774520;80;21026;-67
2021/06/19 05:53:17;;;;;;;15.25;3.45;;;;;;;36.41;33.87;99722.12;1769055;80;20936;-66
2021/06/19 05:55:43;;;;;;;6.12;3.85;;;;;;;36.26;33.93;99715.33;1776294;79;20943;-67
2021/06/19 05:58:10;;;;;;;6.95;3.42;;;;;;;36.26;33.88;99716.68;1776185;80;20918;-66
2021/06/19 06:00:38;;;;;;;6.40;3.22;;;;;;;36.28;33.64;99713.20;1775395;79;20921;-67
2021/06/19 06:03:05;;;;;;;9.55;3.67;;;;;;;36.33;33.61;99721.15;1772059;80;21025;-67
2021/06/19 06:05:33;;;;;;;8.45;3.60;;;;;;;36.34;33.42;99721.45;1771417;80;20936;-66
2021/06/19 06:08:00;;;;;;;5.80;3.60;;;;;;;36.26;33.17;99724.02;1753619;80;20871;-67
2021/06/19 06:10:37;;;;;;;58.17;8.00;;;;;;;36.22;33.24;99719.61;1779326;80;20917;-66
2021/06/19 06:13:06;;;;;;;6.75;3.33;;;;;;;36.40;33.24;99716.41;1776468;78;20890;-67
2021/06/19 06:15:32;;;;;;;13.20;3.70;;;;;;;36.68;33.11;99713.71;1785209;80;21257;-66
2021/06/19 06:17:59;;;;;;;10.82;3.92;;;;;;;36.88;33.04;99727.39;1778945;80;20889;-66
2021/06/19 06:20:26;;;;;;;8.80;3.47;;;;;;;36.88;32.88;99721.95;1783407;80;20886;-66
2021/06/19 06:22:52;;;;;;;45.63;6.08;;;;;;;36.98;32.72;99727.58;1784851;80;20898;-67
2021/06/19 06:25:19;;;;;;;12.30;3.75;;;;;;;36.99;32.55;99724.31;1781338;80;20962;-66
2021/06/19 06:27:46;;;;;;;5.97;3.30;;;;;;;36.95;32.49;99727.53;1780147;78;21701;-66
2021/06/19 06:30:13;;;;;;;7.25;3.52;;;;;;;36.86;32.37;99725.44;1778112;80;21452;-67
2021/06/19 06:32:40;;;;;;;6.78;3.67;;;;;;;36.80;32.36;99724.52;1783524;78;20858;-66
2021/06/19 06:35:09;;;;;;;12.95;3.55;;;;;;;36.87;32.32;99724.39;1783618;80;20923;-67
2021/06/19 06:37:40;;;;;;;14.07;3.67;;;;;;;36.80;32.10;99721.80;1775888;78;20983;-66
2021/06/19 06:40:11;;;;;;;9.48;3.75;;;;;;;36.72;32.10;99720.33;1778035;80;21004;-66
2021/06/19 06:42:41;;;;;;;5.60;3.60;;;;;;;36.63;32.02;99720.41;1780141;79;21448;-66
2021/06/19 06:45:10;;;;;;;62.88;7.62;;;;;;;36.54;32.08;99721.88;1784436;78;20888;-66
2021/06/19 06:47:39;;;;;;;25.80;4.87;;;;;;;36.55;32.10;99716.72;1780611;79;20884;-66
2021/06/19 06:50:07;;;;;;;9.80;3.87;;;;;;;36.61;32.05;99721.21;1781572;80;20956;-66
2021/06/19 06:52:35;;;;;;;11.90;3.83;;;;;;;36.62;32.00;99718.77;1781552;78;21149;-66
2021/06/19 06:55:05;;;;;;;31.95;5.50;;;;;;;36.65;32.10;99715.56;1774166;78;20918;-66
2021/06/19 06:57:35;;;;;;;12.63;3.85;;;;;;;36.63;31.86;99716.33;1775684;78;20975;-66
2021/06/19 07:00:07;;;;;;;7.10;3.65;;;;;;;36.61;31.96;99713.05;1778959;78;20955;-66
2021/06/19 07:02:37;;;;;;;7.00;3.58;;;;;;;36.55;31.91;99718.63;1759560;79;20941;-66
2021/06/19 07:05:06;;;;;;;8.95;3.95;;;;;;;36.56;32.03;99718.93;1784050;79;21864;-66
2021/06/19 07:07:33;;;;;;;22.15;5.15;;;;;;;36.59;32.02;99713.82;1783765;79;20969;-66
2021/06/19 07:10:10;;;;;;;7.80;3.98;;;;;;;36.61;31.86;99719.00;1784185;78;21041;-66
2021/06/19 07:12:41;;;;;;;8.58;3.47;;;;;;;36.47;31.89;99711.67;1781184;78;20916;-66
2021/06/19 07:15:14;;;;;;;15.72;4.28;;;;;;;36.43;31.90;99715.92;1786369;78;20869;-66
2021/06/19 07:17:43;;;;;;;16.30;4.10;;;;;;;36.40;31.79;99715.05;1788413;78;21131;-66
2021/06/19 07:20:11;;;;;;;15.53;3.80;;;;;;;36.39;31.86;99716.12;1782252;78;20916;-66
2021/06/19 07:22:39;;;;;;;8.48;3.62;;;;;;;36.46;31.80;99712.72;1777279;79;21437;-66
2021/06/19 07:25:09;;;;;;;13.83;4.12;;;;;;;36.42;31.96;99708.84;1781066;78;20964;-66
2021/06/19 07:27:37;;;;;;;8.50;3.42;;;;;;;36.48;31.96;99703.79;1763619;79;20942;-65
2021/06/19 07:30:09;;;;;;;7.60;3.55;;;;;;;36.53;31.94;99708.00;1781781;78;21386;-65
2021/06/19 07:32:36;;;;;;;9.00;3.62;;;;;;;36.46;31.74;99708.09;1780954;78;20925;-66
2021/06/19 07:35:11;;;;;;;6.95;3.33;;;;;;;36.21;31.61;99712.50;1778111;78;21232;-65
2021/06/19 07:37:39;;;;;;;5.87;3.53;;;;;;;35.86;31.75;99703.87;1784926;78;20912;-66
2021/06/19 07:40:08;;;;;;;10.05;3.72;;;;;;;35.58;31.68;99706.51;1784926;79;21553;-65
2021/06/19 07:42:38;;;;;;;11.05;4.20;;;;;;;35.31;31.84;99706.93;1778238;79;21040;-65
2021/06/19 07:45:06;;;;;;;12.18;3.92;;;;;;;34.92;31.84;99698.34;1783686;78;20926;-66
2021/06/19 07:47:33;;;;;;;12.40;4.12;;;;;;;34.62;31.92;99700.25;1787047;78;20893;-66
2021/06/19 07:50:00;;;;;;;6.85;3.83;;;;;;;34.37;31.99;99699.86;1786449;79;20908;-65
2021/06/19 07:52:27;;;;;;;5.87;4.08;;;;;;;34.17;32.19;99697.91;1786662;78;20905;-65
2021/06/19 07:54:55;;;;;;;6.65;4.30;;;;;;;34.00;32.45;99695.80;1787552;79;21876;-65
2021/06/19 07:57:24;;;;;;;9.48;4.17;;;;;;;33.95;32.54;99694.30;1784048;79;20935;-65
2021/06/19 07:59:50;;;;;;;8.13;3.70;;;;;;;33.81;32.54;99681.95;1784666;79;20870;-65
2021/06/19 08:02:18;;;;;;;10.48;4.55;;;;;;;33.72;32.95;99688.70;1785438;79;21325;-66
2021/06/19 08:04:44;;;;;;;8.05;3.95;;;;;;;33.55;32.68;99685.22;1781778;80;20897;-65
2021/06/19 08:07:11;;;;;;;7.78;4.58;;;;;;;33.33;32.83;99686.15;1785570;78;21085;-65
2021/06/19 08:09:37;;;;;;;10.50;4.67;;;;;;;33.34;33.19;99680.20;1783127;78;20900;-65
2021/06/19 08:12:06;;;;;;;8.73;4.33;;;;;;;33.43;33.35;99684.28;1784465;79;21415;-65
2021/06/19 08:14:32;;;;;;;20.32;4.80;;;;;;;33.50;33.44;99682.34;1785431;78;21438;-65
2021/06/19 08:17:04;;;;;;;7.92;4.58;;;;;;;33.46;33.47;99683.00;1788132;79;21431;-65
2021/06/19 08:19:27;;;;;;;16.77;5.05;;;;;;;33.44;33.64;99683.22;1784627;78;21104;-66
2021/06/19 08:21:54;;;;;;;8.65;4.78;;;;;;;33.47;33.90;99680.09;1785518;78;20855;-66
2021/06/19 08:24:20;;;;;;;13.40;4.95;;;;;;;33.72;34.07;99671.10;1787656;78;20898;-68
2021/06/19 08:26:47;;;;;;;13.75;5.00;;;;;;;33.68;34.05;99673.97;1788610;78;20885;-66
2021/06/19 08:29:13;;;;;;;8.18;5.20;;;;;;;33.62;34.17;99672.45;1785254;78;20980;-66
2021/06/19 08:31:42;;;;;;;10.98;5.33;;;;;;;33.54;34.36;99674.10;1785637;79;21080;-65
2021/06/19 08:34:08;;;;;;;54.63;7.78;;;;;;;33.53;34.11;99671.11;1781033;78;21526;-65
2021/06/19 08:36:35;;;;;;;10.23;4.67;;;;;;;33.21;34.47;99673.84;1781721;79;21468;-64
2021/06/19 08:39:03;;;;;;;12.75;5.10;;;;;;;33.13;34.53;99679.53;1780779;78;21875;-62
2021/06/19 08:41:32;;;;;;;35.43;6.60;;;;;;;33.10;34.72;99678.63;1780379;78;20912;-64
2021/06/19 08:44:01;;;;;;;20.55;5.25;;;;;;;33.07;34.88;99678.25;1781218;79;21098;-64
2021/06/19 08:46:29;;;;;;;14.68;4.85;;;;;;;32.88;34.72;99670.55;1785813;79;20924;-64
2021/06/19 08:48:57;;;;;;;12.33;4.97;;;;;;;32.73;34.86;99674.39;1785413;78;20910;-64
2021/06/19 08:51:25;;;;;;;21.40;6.37;;;;;;;32.76;35.24;99682.06;1784767;78;20941;-64
2021/06/19 08:53:52;;;;;;;15.25;5.37;;;;;;;32.83;35.08;99675.81;1784105;79;20903;-65
2021/06/19 08:56:20;;;;;;;17.35;5.08;;;;;;;32.73;35.00;99670.88;1780921;79;21059;-65
2021/06/19 08:58:47;;;;;;;7.37;4.17;;;;;;;32.63;35.03;99672.72;1786010;79;20927;-64
2021/06/19 09:01:13;;;;;;;10.82;4.95;;;;;;;32.60;35.24;99670.95;1783354;79;20892;-65
2021/06/19 09:03:40;;;;;;;9.28;4.95;;;;;;;32.59;35.23;99672.83;1783552;78;20866;-65
2021/06/19 09:06:26;;;;;;;5.67;4.35;;;;;;;32.69;35.33;99678.59;1783618;78;20876;-65
2021/06/19 09:09:15;;;;;;;12.15;4.50;;;;;;;32.71;35.10;99681.92;1787535;78;22048;-65
2021/06/19 09:11:51;;;;;;;8.50;4.47;;;;;;;32.79;35.25;99675.40;1785069;78;20936;-65
2021/06/19 09:14:23;;;;;;;10.55;4.75;;;;;;;32.78;34.92;99678.34;1790204;78;21429;-65
2021/06/19 09:17:05;;;;;;;6.95;4.67;;;;;;;32.66;34.96;99674.98;1785189;78;20971;-65
2021/06/19 09:19:38;;;;;;;5.20;4.15;;;;;;;32.67;35.09;99672.57;1779286;79;21186;-65
2021/06/19 09:22:20;;;;;;;8.73;4.60;;;;;;;32.85;35.21;99665.58;1783208;79;21004;-64
2021/06/19 09:25:01;;;;;;;8.65;3.80;;;;;;;33.01;34.99;99666.96;1762715;78;21475;-64
2021/06/19 09:27:38;;;;;;;9.20;4.47;;;;;;;33.00;34.73;99659.38;1786239;79;20902;-65
2021/06/19 09:30:22;;;;;;;13.03;3.77;;;;;;;32.97;34.53;99663.84;1784217;79;20904;-65
2021/06/19 09:32:55;;;;;;;7.30;3.85;;;;;;;33.00;34.43;99666.14;1756143;80;21481;-65
2021/06/19 09:35:29;;;;;;;8.90;3.90;;;;;;;33.11;34.24;99660.02;1758299;80;21089;-65
2021/06/19 09:38:10;;;;;;;7.37;4.30;;;;;;;33.09;34.22;99652.63;1786944;78;21550;-65
2021/06/19 09:40:50;;;;;;;6.28;3.60;;;;;;;33.18;34.09;99655.35;1785433;78;21679;-65
2021/06/19 09:43:24;;;;;;;13.85;4.40;;;;;;;33.28;33.77;99664.87;1784838;78;20912;-64
2021/06/19 09:46:10;;;;;;;5.17;3.47;;;;;;;33.10;33.38;99669.16;1785175;78;20943;-65
2021/06/19 09:48:40;;;;;;;22.95;5.75;;;;;;;32.74;33.54;99671.16;1784714;78;20983;-66
2021/06/19 09:51:18;;;;;;;6.70;3.87;;;;;;;32.47;33.48;99674.58;1786175;78;20940;-65
2021/06/19 09:53:48;;;;;;;8.80;4.37;;;;;;;32.56;33.54;99673.27;1785511;78;21563;-66
2021/06/19 09:56:18;;;;;;;13.45;4.62;;;;;;;32.71;33.45;99673.81;1786356;78;20960;-66
2021/06/19 09:58:53;;;;;;;54.70;6.90;;;;;;;32.75;33.22;99675.55;1788535;78;21228;-65
2021/06/19 10:01:37;;;;;;;7.55;4.65;;;;;;;32.75;33.17;99668.25;1782353;78;21207;-66
2021/06/19 10:04:05;;;;;;;8.23;3.80;;;;;;;32.78;33.12;99670.23;1783927;78;20904;-65
2021/06/19 10:06:36;;;;;;;14.93;4.33;;;;;;;32.91;33.25;99664.70;1787186;78;21259;-66
2021/06/19 10:09:04;;;;;;;12.28;4.25;;;;;;;33.03;33.06;99662.98;1777904;78;21420;-66
2021/06/19 10:11:31;;;;;;;13.32;4.17;;;;;;;32.96;32.78;99661.64;1780247;79;21476;-65
2021/06/19 10:14:00;;;;;;;22.00;5.28;;;;;;;32.86;32.64;99663.20;1780221;79;21093;-65
2021/06/19 10:16:29;;;;;;;12.90;4.62;;;;;;;32.79;32.59;99667.28;1778289;79;21380;-65
2021/06/19 10:18:57;;;;;;;11.33;3.70;;;;;;;32.74;32.60;99670.66;1776687;79;20930;-65
2021/06/19 10:21:26;;;;;;;12.47;4.42;;;;;;;32.78;32.60;99668.88;1774917;79;20993;-66
2021/06/19 10:23:52;;;;;;;9.15;4.75;;;;;;;32.63;32.10;99663.25;1776782;79;20883;-65
2021/06/19 10:26:24;;;;;;;7.58;3.50;;;;;;;32.59;32.12;99655.27;1774741;79;21028;-65
2021/06/19 10:28:57;;;;;;;53.92;6.35;;;;;;;32.67;32.29;99655.53;1772868;79;20929;-66
2021/06/19 10:31:25;;;;;;;8.15;3.55;;;;;;;32.79;32.08;99658.35;1774736;79;21388;-65
2021/06/19 10:33:52;;;;;;;8.33;4.28;;;;;;;32.66;31.62;99656.06;1773271;79;20894;-66
2021/06/19 10:36:19;;;;;;;9.35;3.75;;;;;;;32.48;31.47;99655.95;1776120;79;20938;-66
2021/06/19 10:38:57;;;;;;;8.93;4.87;;;;;;;32.55;31.75;99660.81;1777576;79;21837;-65
2021/06/19 10:41:48;;;;;;;32.17;5.30;;;;;;;32.60;31.74;99650.18;1775873;79;20831;-64
2021/06/19 10:44:35;;;;;;;24.20;5.00;;;;;;;32.58;31.59;99653.62;1750552;81;20905;-67
2021/06/19 10:47:02;;;;;;;6.67;3.70;;;;;;;32.58;31.77;99654.97;1751104;80;20879;-65
2021/06/19 10:49:35;;;;;;;10.35;3.90;;;;;;;32.64;31.91;99647.33;1770914;79;20917;-65
2021/06/19 10:52:25;;;;;;;7.25;3.75;;;;;;;32.68;31.80;99654.47;1769086;80;21021;-65
2021/06/19 10:55:15;;;;;;;8.03;4.00;;;;;;;32.67;31.95;99653.65;1765553;80;20866;-65
2021/06/19 10:57:51;;;;;;;13.38;4.60;;;;;;;32.90;32.03;99657.65;1775824;79;20871;-66
2021/06/19 11:00:44;;;;;;;22.13;7.15;;;;;;;32.96;32.12;99652.70;1748919;80;20944;-67
2021/06/19 11:03:10;;;;;;;55.15;6.97;;;;;;;33.07;32.18;99647.96;1746388;80;20910;-66
2021/06/19 11:05:55;;;;;;;11.28;4.40;;;;;;;33.22;32.07;99636.83;1760012;80;21034;-66
2021/06/19 11:08:22;;;;;;;14.73;5.40;;;;;;;33.19;31.97;99629.98;1761928;79;20932;-66
2021/06/19 11:10:53;;;;;;;19.37;9.45;;;;;;;33.15;32.03;99631.45;1775561;79;20909;-67
2021/06/19 11:13:34;;;;;;;17.77;6.42;;;;;;;33.13;31.90;99628.14;1772387;79;20904;-65
2021/06/19 11:16:06;;;;;;;8.90;4.10;;;;;;;33.06;31.90;99627.38;1780315;79;20900;-66
2021/06/19 11:18:54;;;;;;;35.03;15.70;;;;;;;32.76;31.69;99624.47;1780075;79;21121;-66
2021/06/19 11:21:36;;;;;;;29.25;9.88;;;;;;;32.74;32.03;99625.20;1768218;79;21479;-66
2021/06/19 11:24:07;;;;;;;45.12;17.67;;;;;;;32.84;32.09;99616.62;1766715;79;20973;-66
2021/06/19 11:26:57;;;;;;;170.85;78.37;;;;;;;32.87;32.02;99611.59;1772538;79;21502;-67
2021/06/19 11:29:41;;;;;;;120.13;18.17;;;;;;;32.89;32.18;99607.33;1756569;80;21001;-67
2021/06/19 11:32:32;;;;;;;9.88;5.72;;;;;;;32.99;32.24;99604.93;1755749;80;21018;-66
2021/06/19 11:35:01;;;;;;;9.68;6.05;;;;;;;33.05;32.29;99609.52;1745852;81;20909;-66
2021/06/19 11:38:00;;;;;;;10.25;5.65;;;;;;;33.08;32.07;99598.25;1792784;78;21449;-66
2021/06/19 11:40:28;;;;;;;12.15;4.20;;;;;;;33.19;32.16;99608.33;1780204;79;21482;-66
2021/06/19 11:42:55;;;;;;;6.35;3.95;;;;;;;33.19;32.16;99611.04;1777700;79;20935;-65